In Rescue
 
Open Full Screen Window  High Contrast Mode
Wind Gusting 00 knots
06
March 01, 2024 5:05 PM EST
Weather Information
Wind Direction
  140 °
Wind Speed
  06 kt (7 mph)
Wind Gust
  00 kt (0 mph)
Altimeter
30.19 in
Visibility
10 SM
Temperature
05° C
41° F
Dewpoint
-02° C
28° F
Humidity
61%
Sky Condition
Overcast @ 4,500 ft
VFR

METAR KAXV 012205Z AUTO 14006KT 10SM OVC045 05/M02 A3019 RMK AO2

FAA Disclaimer: The data displayed is for advisory purposes only and is not to be used for flight planning or operations.